Time;durP1;ratioP1;P1;durP2;ratioP2;P2;SDS_P1;SDS_P2;PMS_P1;PMS_P2;Temp;Humidity;BMP_temperature;BMP_pressure;BME280_temperature;BME280_humidity;BME280_pressure;Samples;Min_cycle;Max_cycle;Signal;HPM_P1;HPM_P2
2022/02/17 00:00:28;;;;;;;0.00;0.00;;;13.60;99.90;;;;;;5062124;28;20190;-83
2022/02/17 00:02:54;;;;;;;0.10;0.10;;;13.60;99.90;;;;;;5058891;28;20205;-82
2022/02/17 00:05:21;;;;;;;0.10;0.10;;;13.60;99.90;;;;;;5054885;28;20178;-82
2022/02/17 00:07:48;;;;;;;0.00;0.00;;;13.50;99.90;;;;;;5060938;28;20191;-82
2022/02/17 00:10:13;;;;;;;0.10;0.10;;;13.50;99.90;;;;;;5037880;28;20239;-83
2022/02/17 00:12:39;;;;;;;0.07;0.07;;;13.50;99.90;;;;;;5038625;28;20189;-83
2022/02/17 00:15:05;;;;;;;0.10;0.10;;;13.40;99.90;;;;;;5037750;28;21269;-83
2022/02/17 00:17:31;;;;;;;0.10;0.10;;;13.40;99.90;;;;;;5036197;28;20213;-83
2022/02/17 00:19:57;;;;;;;0.10;0.10;;;13.40;99.90;;;;;;5037455;28;20277;-83
2022/02/17 00:22:22;;;;;;;0.07;0.07;;;13.40;99.90;;;;;;5038144;28;20194;-83
2022/02/17 00:24:48;;;;;;;0.10;0.10;;;13.40;99.90;;;;;;5036135;28;20212;-83
2022/02/17 00:27:13;;;;;;;0.10;0.10;;;13.40;99.90;;;;;;5036210;28;20288;-83
2022/02/17 00:29:39;;;;;;;0.10;0.10;;;13.30;99.90;;;;;;5037546;28;20530;-83
2022/02/17 00:32:05;;;;;;;0.10;0.10;;;13.30;99.90;;;;;;5036924;28;20178;-84
2022/02/17 00:34:31;;;;;;;0.10;0.10;;;13.30;99.90;;;;;;5037180;28;20184;-83
2022/02/17 00:36:56;;;;;;;0.10;0.10;;;13.20;99.90;;;;;;5034220;28;20556;-84
2022/02/17 00:39:22;;;;;;;0.10;0.10;;;13.20;99.90;;;;;;5038332;28;20228;-83
2022/02/17 00:41:49;;;;;;;0.10;0.10;;;13.20;99.90;;;;;;5034941;28;20187;-84
2022/02/17 00:44:15;;;;;;;0.10;0.10;;;13.20;99.90;;;;;;5037187;28;20198;-84
2022/02/17 00:46:40;;;;;;;0.07;0.07;;;13.20;99.90;;;;;;5035675;28;20693;-84
2022/02/17 00:49:06;;;;;;;0.10;0.10;;;13.20;99.90;;;;;;5035213;28;20534;-84
2022/02/17 00:51:32;;;;;;;0.10;0.10;;;13.20;99.90;;;;;;5035959;28;20636;-83
2022/02/17 00:53:57;;;;;;;0.00;0.00;;;13.10;99.90;;;;;;5050687;28;20780;-84
2022/02/17 00:56:22;;;;;;;0.10;0.10;;;13.20;99.90;;;;;;5035391;28;20213;-83
2022/02/17 00:58:48;;;;;;;0.10;0.10;;;13.20;99.90;;;;;;5036705;28;20178;-83
2022/02/17 01:01:14;;;;;;;0.10;0.10;;;13.20;99.90;;;;;;5034573;28;20201;-84
2022/02/17 01:03:39;;;;;;;0.10;0.10;;;13.30;99.90;;;;;;5034659;28;20217;-84
2022/02/17 01:06:18;;;;;;;0.10;0.10;;;13.30;99.90;;;;;;5042688;28;20554;-84
2022/02/17 01:08:44;;;;;;;0.10;0.10;;;13.30;99.90;;;;;;5041241;28;20209;-83
2022/02/17 01:11:09;;;;;;;0.00;0.00;;;13.40;99.90;;;;;;5038575;28;20659;-83
2022/02/17 01:13:35;;;;;;;0.17;0.17;;;13.40;99.90;;;;;;5037594;28;20313;-84
2022/02/17 01:16:00;;;;;;;0.10;0.10;;;13.40;99.90;;;;;;5042075;28;20713;-84
2022/02/17 01:18:26;;;;;;;0.10;0.10;;;13.30;99.90;;;;;;5037317;28;20193;-84
2022/02/17 01:20:52;;;;;;;0.10;0.10;;;13.30;99.90;;;;;;5038596;28;20177;-84
2022/02/17 01:23:17;;;;;;;0.10;0.10;;;13.30;99.90;;;;;;5041446;28;20196;-84
2022/02/17 01:25:43;;;;;;;0.10;0.10;;;13.30;99.90;;;;;;5036536;28;20219;-84
2022/02/17 01:28:09;;;;;;;0.33;0.33;;;13.30;99.90;;;;;;5041062;28;20209;-83
2022/02/17 01:30:34;;;;;;;0.10;0.10;;;13.30;99.90;;;;;;5041727;28;20218;-84
2022/02/17 01:33:00;;;;;;;0.10;0.10;;;13.30;99.90;;;;;;5039394;28;20186;-84
2022/02/17 01:35:26;;;;;;;0.10;0.10;;;13.20;99.90;;;;;;5037792;28;20209;-84
2022/02/17 01:37:51;;;;;;;0.10;0.10;;;13.00;99.90;;;;;;5037910;28;20204;-83
2022/02/17 01:40:17;;;;;;;0.73;0.37;;;13.00;99.90;;;;;;5035580;28;20186;-84
2022/02/17 01:42:44;;;;;;;0.10;0.10;;;13.00;99.90;;;;;;5040267;28;20197;-84
2022/02/17 01:45:10;;;;;;;0.10;0.10;;;13.00;99.90;;;;;;5042817;28;20965;-83
2022/02/17 01:47:36;;;;;;;0.10;0.10;;;12.90;99.90;;;;;;5039213;28;20182;-83
2022/02/17 01:50:03;;;;;;;0.10;0.10;;;12.90;99.90;;;;;;5033150;28;20192;-82
2022/02/17 01:52:29;;;;;;;0.10;0.10;;;12.90;99.90;;;;;;5040070;28;20186;-83
2022/02/17 01:54:55;;;;;;;0.10;0.10;;;12.80;99.90;;;;;;5038379;28;20330;-82
2022/02/17 01:57:26;;;;;;;0.10;0.10;;;12.80;99.90;;;;;;5039340;28;20224;-82
2022/02/17 01:59:52;;;;;;;0.10;0.10;;;12.80;99.90;;;;;;5039310;28;20276;-83
2022/02/17 02:02:17;;;;;;;0.10;0.10;;;12.80;99.90;;;;;;5039181;28;20194;-82
2022/02/17 02:04:43;;;;;;;0.47;0.20;;;12.80;99.90;;;;;;5035950;28;20244;-82
2022/02/17 02:07:09;;;;;;;0.10;0.10;;;12.80;99.90;;;;;;5040418;28;20281;-82
2022/02/17 02:09:36;;;;;;;0.10;0.10;;;12.80;99.90;;;;;;5040475;28;20190;-82
2022/02/17 02:12:03;;;;;;;0.10;0.10;;;12.70;99.90;;;;;;5038858;28;20271;-82
2022/02/17 02:14:29;;;;;;;0.00;0.00;;;12.80;99.90;;;;;;5039389;28;20181;-82
2022/02/17 02:16:56;;;;;;;0.10;0.10;;;12.80;99.90;;;;;;5030120;28;20282;-82
2022/02/17 02:19:22;;;;;;;0.07;0.07;;;12.80;99.90;;;;;;5023919;28;20241;-82
2022/02/17 02:21:47;;;;;;;0.30;0.30;;;12.80;99.90;;;;;;5025101;28;20183;-82
2022/02/17 02:24:13;;;;;;;0.10;0.10;;;12.90;99.90;;;;;;5024036;28;20209;-82
2022/02/17 02:26:39;;;;;;;0.20;0.20;;;12.90;99.90;;;;;;5022107;28;20198;-82
2022/02/17 02:29:04;;;;;;;0.00;0.00;;;12.90;99.90;;;;;;5025397;28;20183;-82
2022/02/17 02:31:30;;;;;;;0.10;0.10;;;12.80;99.90;;;;;;5021890;28;20197;-82
2022/02/17 02:33:55;;;;;;;0.20;0.20;;;12.60;99.90;;;;;;5021702;28;20189;-82
2022/02/17 02:36:21;;;;;;;0.10;0.10;;;12.60;99.90;;;;;;5022724;28;20866;-82
2022/02/17 02:38:46;;;;;;;0.10;0.10;;;12.50;99.90;;;;;;5026531;28;20710;-82
2022/02/17 02:41:12;;;;;;;0.20;0.20;;;12.50;99.90;;;;;;5022640;28;20652;-82
2022/02/17 02:43:38;;;;;;;0.10;0.10;;;12.50;99.90;;;;;;5027612;28;20277;-82
2022/02/17 02:46:06;;;;;;;0.00;0.00;;;12.60;99.90;;;;;;5024285;28;20727;-82
2022/02/17 02:48:31;;;;;;;0.10;0.10;;;12.60;99.90;;;;;;5025411;28;20186;-82
2022/02/17 02:50:57;;;;;;;0.03;0.03;;;12.80;99.90;;;;;;5023886;28;20186;-82
2022/02/17 02:53:22;;;;;;;0.10;0.10;;;12.90;99.90;;;;;;5026062;28;20617;-82
2022/02/17 02:55:49;;;;;;;0.00;0.00;;;12.90;99.90;;;;;;5022892;28;20263;-82
2022/02/17 02:58:17;;;;;;;0.10;0.10;;;13.00;99.90;;;;;;5026481;28;20236;-83
2022/02/17 03:00:44;;;;;;;0.10;0.10;;;13.10;99.90;;;;;;5023491;28;20193;-82
2022/02/17 03:03:10;;;;;;;0.20;0.10;;;13.10;99.90;;;;;;5026351;28;20198;-82
2022/02/17 03:05:36;;;;;;;0.10;0.10;;;13.10;99.90;;;;;;5026151;28;20241;-82
2022/02/17 03:08:02;;;;;;;0.10;0.10;;;13.00;99.90;;;;;;5027819;28;21093;-82
2022/02/17 03:10:28;;;;;;;0.10;0.10;;;13.10;99.90;;;;;;5025528;28;20670;-82
2022/02/17 03:12:54;;;;;;;0.10;0.10;;;13.10;99.90;;;;;;5023547;28;20186;-82
2022/02/17 03:15:21;;;;;;;0.10;0.10;;;13.20;99.90;;;;;;5023414;28;20239;-82
2022/02/17 03:17:47;;;;;;;0.20;0.20;;;13.30;99.90;;;;;;5025662;28;20278;-82
2022/02/17 03:20:12;;;;;;;0.10;0.10;;;13.20;99.90;;;;;;5024787;28;20265;-82
2022/02/17 03:22:39;;;;;;;0.10;0.10;;;13.30;99.90;;;;;;5024180;28;20190;-83
2022/02/17 03:25:07;;;;;;;0.07;0.07;;;13.20;99.90;;;;;;5024987;28;20287;-82
2022/02/17 03:27:32;;;;;;;0.10;0.10;;;13.20;99.90;;;;;;5017127;28;20235;-82
2022/02/17 03:29:58;;;;;;;0.10;0.10;;;13.10;99.90;;;;;;5022702;28;20214;-82
2022/02/17 03:32:23;;;;;;;0.10;0.10;;;13.10;99.90;;;;;;5024887;28;20214;-82
2022/02/17 03:34:49;;;;;;;0.27;0.27;;;13.00;99.90;;;;;;5023001;28;20194;-83
2022/02/17 03:37:15;;;;;;;0.00;0.00;;;13.00;99.90;;;;;;5024486;28;20206;-82
2022/02/17 03:39:40;;;;;;;1.90;0.37;;;12.90;99.90;;;;;;5025331;28;20263;-84
2022/02/17 03:42:06;;;;;;;0.10;0.10;;;12.80;99.90;;;;;;5018489;28;20183;-84
2022/02/17 03:44:32;;;;;;;1.20;0.20;;;12.80;99.90;;;;;;5024946;28;20626;-84
2022/02/17 03:46:58;;;;;;;0.10;0.10;;;12.80;99.90;;;;;;5023227;28;20555;-84
2022/02/17 03:49:23;;;;;;;0.10;0.10;;;12.70;99.90;;;;;;5024757;28;20178;-83
2022/02/17 03:51:50;;;;;;;0.60;0.60;;;12.70;99.90;;;;;;5020981;28;20182;-84
2022/02/17 03:54:15;;;;;;;0.03;0.03;;;12.70;99.90;;;;;;5023287;28;20207;-84
2022/02/17 03:56:41;;;;;;;0.03;0.03;;;12.70;99.90;;;;;;5022022;28;20214;-83
2022/02/17 03:59:08;;;;;;;1.00;0.97;;;12.60;99.90;;;;;;5024808;28;20191;-84
2022/02/17 04:01:35;;;;;;;0.27;0.20;;;12.60;99.90;;;;;;5024642;28;20650;-84
2022/02/17 04:04:03;;;;;;;0.10;0.10;;;12.60;99.90;;;;;;5040386;28;20201;-84
2022/02/17 04:06:28;;;;;;;0.10;0.10;;;12.50;99.90;;;;;;5022539;28;20364;-82
2022/02/17 04:08:55;;;;;;;0.10;0.10;;;12.50;99.90;;;;;;5021185;28;20285;-83
2022/02/17 04:11:20;;;;;;;0.10;0.10;;;12.40;99.90;;;;;;5023798;28;20285;-82
2022/02/17 04:13:46;;;;;;;0.00;0.00;;;12.30;99.90;;;;;;5025273;28;20601;-83
2022/02/17 04:16:12;;;;;;;0.20;0.20;;;12.40;99.90;;;;;;5018286;28;20202;-83
2022/02/17 04:18:38;;;;;;;0.30;0.20;;;12.30;99.90;;;;;;5024733;28;20228;-84
2022/02/17 04:21:05;;;;;;;0.10;0.10;;;12.30;99.90;;;;;;5022472;28;20190;-84
2022/02/17 04:23:30;;;;;;;0.20;0.20;;;12.30;99.90;;;;;;5020062;28;20189;-83
2022/02/17 04:25:56;;;;;;;0.10;0.10;;;12.20;99.90;;;;;;5019890;28;20218;-84
2022/02/17 04:28:22;;;;;;;0.17;0.17;;;12.20;99.90;;;;;;5017629;28;20209;-84
2022/02/17 04:30:47;;;;;;;0.10;0.10;;;12.20;99.90;;;;;;5022975;28;20604;-83
2022/02/17 04:33:13;;;;;;;0.10;0.10;;;12.10;99.90;;;;;;5023440;28;21036;-84
2022/02/17 04:35:39;;;;;;;0.30;0.30;;;12.00;99.90;;;;;;5025530;28;20244;-84
2022/02/17 04:38:04;;;;;;;0.20;0.20;;;11.90;99.90;;;;;;5024003;28;20182;-84
2022/02/17 04:43:14;;;;;;;1.03;0.47;;;12.00;99.90;;;;;;5024677;28;20189;-84
2022/02/17 04:45:39;;;;;;;1.80;1.03;;;12.00;99.90;;;;;;5023456;28;20209;-83
2022/02/17 04:48:06;;;;;;;0.10;0.10;;;12.00;99.90;;;;;;5022795;28;20190;-83
2022/02/17 04:50:32;;;;;;;0.10;0.10;;;12.00;99.90;;;;;;5024161;28;20238;-84
2022/02/17 04:52:58;;;;;;;1.60;0.30;;;11.90;99.90;;;;;;5019082;28;20209;-84
2022/02/17 04:55:24;;;;;;;1.77;0.50;;;11.90;99.90;;;;;;5021342;28;20212;-84
2022/02/17 04:57:50;;;;;;;0.13;0.13;;;12.00;99.90;;;;;;5019200;28;20216;-84
2022/02/17 05:00:15;;;;;;;0.10;0.10;;;11.90;99.90;;;;;;5023553;28;20204;-84
2022/02/17 05:02:41;;;;;;;0.57;0.30;;;11.90;99.90;;;;;;5022139;28;20253;-84
2022/02/17 05:05:07;;;;;;;1.43;0.93;;;11.80;99.90;;;;;;5020225;28;20687;-84
2022/02/17 05:07:32;;;;;;;0.73;0.67;;;11.80;99.90;;;;;;5022433;28;20200;-83
2022/02/17 05:09:58;;;;;;;1.00;0.80;;;11.70;99.90;;;;;;5022985;28;20181;-82
2022/02/17 05:12:23;;;;;;;0.30;0.30;;;11.50;99.90;;;;;;5024883;28;20179;-83
2022/02/17 05:14:49;;;;;;;0.10;0.10;;;11.50;99.90;;;;;;5019555;28;20190;-84
2022/02/17 05:17:14;;;;;;;0.10;0.10;;;11.50;99.90;;;;;;5024927;28;20220;-83
2022/02/17 05:19:40;;;;;;;0.47;0.30;;;11.50;99.90;;;;;;5023702;28;20190;-83
2022/02/17 05:22:05;;;;;;;0.10;0.10;;;11.50;99.90;;;;;;5018275;28;20248;-83
2022/02/17 05:24:31;;;;;;;0.97;0.40;;;11.50;99.90;;;;;;5023579;28;20910;-83
2022/02/17 05:26:56;;;;;;;1.50;0.40;;;11.50;99.90;;;;;;5021424;28;20194;-81
2022/02/17 05:29:22;;;;;;;0.20;0.20;;;11.50;99.90;;;;;;5019977;28;20301;-81
2022/02/17 05:31:48;;;;;;;0.10;0.10;;;11.40;99.90;;;;;;5022857;28;20608;-83
2022/02/17 05:34:14;;;;;;;2.27;0.30;;;11.40;99.90;;;;;;5019219;28;20277;-83
2022/02/17 05:36:40;;;;;;;1.10;1.03;;;11.40;99.90;;;;;;5021865;28;20202;-84
2022/02/17 05:39:06;;;;;;;0.97;0.97;;;11.40;99.90;;;;;;5017952;28;20183;-83
2022/02/17 05:41:32;;;;;;;0.30;0.30;;;11.40;99.90;;;;;;5025199;28;20663;-83
2022/02/17 05:43:57;;;;;;;0.10;0.10;;;11.40;99.90;;;;;;5019534;28;20178;-83
2022/02/17 05:46:23;;;;;;;0.10;0.10;;;11.40;99.90;;;;;;5021706;28;20227;-84
2022/02/17 05:48:49;;;;;;;0.20;0.20;;;11.40;99.90;;;;;;5023705;28;20197;-84
2022/02/17 05:51:18;;;;;;;0.10;0.10;;;11.40;99.90;;;;;;5021740;28;20196;-84
2022/02/17 05:53:44;;;;;;;1.37;0.33;;;11.40;99.90;;;;;;5027537;28;20189;-84
2022/02/17 05:56:10;;;;;;;4.00;0.50;;;11.40;99.90;;;;;;5023111;28;20218;-84
2022/02/17 05:58:35;;;;;;;0.60;0.60;;;11.40;99.90;;;;;;5027996;28;20306;-84
2022/02/17 06:01:02;;;;;;;0.10;0.10;;;11.40;99.90;;;;;;5023165;28;20973;-84
2022/02/17 06:03:27;;;;;;;1.80;0.40;;;11.50;99.90;;;;;;5027500;28;20225;-83
2022/02/17 06:05:53;;;;;;;0.10;0.10;;;11.40;99.90;;;;;;5022153;28;20249;-84
2022/02/17 06:08:19;;;;;;;6.50;1.53;;;11.40;99.90;;;;;;5019218;28;20732;-83
2022/02/17 06:10:45;;;;;;;0.37;0.37;;;11.50;99.90;;;;;;5022570;28;20193;-83
2022/02/17 06:13:10;;;;;;;0.73;0.73;;;11.40;99.90;;;;;;5018928;28;20195;-84
2022/02/17 06:15:37;;;;;;;2.27;1.03;;;11.40;99.90;;;;;;5026098;28;20684;-83
2022/02/17 06:18:03;;;;;;;0.10;0.10;;;11.40;99.90;;;;;;5026524;28;20195;-84
2022/02/17 06:20:29;;;;;;;3.83;0.47;;;11.40;99.90;;;;;;5022624;28;20254;-84
2022/02/17 06:22:55;;;;;;;0.87;0.87;;;11.30;99.90;;;;;;5021279;28;20186;-83
2022/02/17 06:25:21;;;;;;;1.80;0.80;;;11.30;99.90;;;;;;5025188;28;20213;-84
2022/02/17 06:27:48;;;;;;;1.60;1.27;;;11.30;99.90;;;;;;5027000;28;20207;-83
2022/02/17 06:30:14;;;;;;;1.40;0.33;;;11.30;99.90;;;;;;5023874;28;20194;-84
2022/02/17 06:32:51;;;;;;;1.60;0.20;;;11.20;99.90;;;;;;5023174;28;20235;-83
2022/02/17 06:35:27;;;;;;;8.00;0.97;;;11.20;99.90;;;;;;5025765;28;20795;-83
2022/02/17 06:37:53;;;;;;;6.13;0.83;;;11.30;99.90;;;;;;5027044;28;20202;-83
2022/02/17 06:40:20;;;;;;;0.30;0.30;;;11.20;99.90;;;;;;5025143;28;20228;-84
2022/02/17 06:42:46;;;;;;;0.10;0.10;;;11.20;99.90;;;;;;5018449;28;20887;-84
2022/02/17 06:45:12;;;;;;;2.43;1.23;;;11.20;99.90;;;;;;5020120;28;20710;-83
2022/02/17 06:47:38;;;;;;;0.20;0.20;;;11.10;99.90;;;;;;5027342;28;20193;-84
2022/02/17 06:50:06;;;;;;;0.30;0.30;;;11.10;99.90;;;;;;5024773;28;20193;-84
2022/02/17 06:52:32;;;;;;;0.93;0.93;;;11.10;99.90;;;;;;5025888;28;20236;-83
2022/02/17 06:54:57;;;;;;;0.40;0.40;;;11.10;99.90;;;;;;5026031;28;20182;-84
2022/02/17 06:57:23;;;;;;;0.37;0.30;;;11.10;99.90;;;;;;5021918;28;20207;-84
2022/02/17 06:59:52;;;;;;;2.93;0.50;;;11.10;99.90;;;;;;5024981;28;20247;-83
2022/02/17 07:02:26;;;;;;;0.30;0.30;;;11.10;99.90;;;;;;5025656;28;20235;-84
2022/02/17 07:04:51;;;;;;;0.77;0.77;;;11.10;99.90;;;;;;5022229;28;20214;-83
2022/02/17 07:07:18;;;;;;;5.83;0.40;;;11.10;99.90;;;;;;5024031;28;21707;-83
2022/02/17 07:09:44;;;;;;;0.20;0.20;;;11.00;99.90;;;;;;5023871;28;20183;-83
2022/02/17 07:12:10;;;;;;;1.20;1.20;;;11.00;99.90;;;;;;5024109;28;20240;-83
2022/02/17 07:14:36;;;;;;;1.00;0.53;;;11.00;99.90;;;;;;5023001;28;20216;-83
2022/02/17 07:17:02;;;;;;;1.00;0.20;;;11.00;99.90;;;;;;5022440;28;20687;-84
2022/02/17 07:19:27;;;;;;;0.10;0.10;;;11.10;99.90;;;;;;5025047;28;20272;-83
2022/02/17 07:21:53;;;;;;;1.13;0.80;;;10.80;99.90;;;;;;5025563;28;21606;-83
2022/02/17 07:24:19;;;;;;;1.10;0.63;;;10.50;99.90;;;;;;5021517;28;20213;-84
2022/02/17 07:26:46;;;;;;;0.93;0.33;;;10.50;99.90;;;;;;5019448;28;20275;-82
2022/02/17 07:29:13;;;;;;;3.90;1.10;;;10.30;99.90;;;;;;5021499;28;20198;-81
2022/02/17 07:31:38;;;;;;;0.20;0.20;;;10.00;99.90;;;;;;5021564;28;20264;-82
2022/02/17 07:34:04;;;;;;;0.47;0.43;;;10.00;99.90;;;;;;5021273;28;20192;-82
2022/02/17 07:36:30;;;;;;;0.10;0.10;;;10.10;99.90;;;;;;5022735;28;20209;-83
2022/02/17 07:38:56;;;;;;;0.47;0.30;;;10.20;99.90;;;;;;5025246;28;20189;-83
2022/02/17 07:41:22;;;;;;;0.10;0.10;;;10.30;99.90;;;;;;5021973;28;20272;-83
2022/02/17 07:43:47;;;;;;;11.77;1.63;;;10.40;99.90;;;;;;5024911;28;21135;-83
2022/02/17 07:46:13;;;;;;;6.83;0.47;;;10.40;99.90;;;;;;5021434;28;20220;-82
2022/02/17 07:48:39;;;;;;;0.10;0.10;;;10.60;99.90;;;;;;5019908;28;20659;-83
2022/02/17 07:51:06;;;;;;;0.30;0.30;;;10.60;99.90;;;;;;5029487;28;20230;-82
2022/02/17 07:53:32;;;;;;;0.10;0.10;;;10.70;99.90;;;;;;5030667;28;20214;-82
2022/02/17 07:55:58;;;;;;;0.37;0.37;;;10.70;99.90;;;;;;5023313;28;20688;-83
2022/02/17 07:58:25;;;;;;;2.00;0.53;;;10.80;99.90;;;;;;5025454;28;20196;-83
2022/02/17 08:00:51;;;;;;;0.03;0.03;;;10.70;99.90;;;;;;5027512;28;20685;-83
2022/02/17 08:03:17;;;;;;;1.20;0.73;;;10.60;99.90;;;;;;5023759;28;20194;-82
2022/02/17 08:05:43;;;;;;;1.80;0.23;;;10.50;99.90;;;;;;5020849;28;20307;-83
2022/02/17 08:08:10;;;;;;;0.57;0.50;;;10.60;99.90;;;;;;5020736;28;20202;-82
2022/02/17 08:10:36;;;;;;;0.80;0.80;;;10.60;99.90;;;;;;5025805;28;20207;-83
2022/02/17 08:13:03;;;;;;;0.23;0.23;;;10.70;99.90;;;;;;5023675;28;20289;-83
2022/02/17 08:15:28;;;;;;;0.27;0.23;;;10.70;99.90;;;;;;5018492;28;20562;-83
2022/02/17 08:17:54;;;;;;;0.23;0.20;;;10.60;99.90;;;;;;5022123;28;20203;-82
2022/02/17 08:20:19;;;;;;;0.37;0.27;;;10.50;99.90;;;;;;5019795;28;20201;-83
2022/02/17 08:22:53;;;;;;;0.10;0.10;;;10.50;99.90;;;;;;5023290;28;20184;-83
2022/02/17 08:25:22;;;;;;;0.50;0.50;;;10.50;99.90;;;;;;5022749;28;20748;-83
2022/02/17 08:27:49;;;;;;;0.47;0.47;;;10.80;99.90;;;;;;5025929;28;20238;-83
2022/02/17 08:30:15;;;;;;;0.00;0.00;;;10.90;99.90;;;;;;5023781;28;20195;-83
2022/02/17 08:32:41;;;;;;;0.10;0.10;;;10.90;99.90;;;;;;5022931;28;20184;-83
2022/02/17 08:35:10;;;;;;;0.53;0.37;;;11.00;99.90;;;;;;5025145;28;20248;-83
2022/02/17 08:37:36;;;;;;;2.23;0.37;;;11.10;99.90;;;;;;5025862;28;20204;-83
2022/02/17 08:40:03;;;;;;;0.27;0.27;;;11.30;99.90;;;;;;5021789;28;20316;-83
2022/02/17 08:42:30;;;;;;;1.70;1.07;;;11.40;99.90;;;;;;5022445;28;20194;-83
2022/02/17 08:44:55;;;;;;;0.63;0.63;;;11.50;99.90;;;;;;5019738;28;20292;-83
2022/02/17 08:47:21;;;;;;;5.87;0.50;;;11.60;99.90;;;;;;5026015;28;20446;-84
2022/02/17 08:49:47;;;;;;;0.40;0.40;;;11.60;99.90;;;;;;5027236;28;20185;-81
2022/02/17 08:52:13;;;;;;;0.83;0.60;;;11.90;99.90;;;;;;5024892;28;20189;-83
2022/02/17 08:54:39;;;;;;;1.67;0.63;;;11.80;99.90;;;;;;5026617;28;20208;-82
2022/02/17 08:57:05;;;;;;;0.47;0.47;;;11.90;99.90;;;;;;5021067;28;20266;-81
2022/02/17 08:59:30;;;;;;;1.80;0.57;;;12.10;99.90;;;;;;5021012;28;20193;-82
2022/02/17 09:01:56;;;;;;;0.27;0.27;;;12.20;99.90;;;;;;5023879;28;20270;-83
2022/02/17 09:04:22;;;;;;;4.77;0.73;;;12.10;99.90;;;;;;5023061;28;20266;-82
2022/02/17 09:06:48;;;;;;;0.40;0.33;;;12.10;99.90;;;;;;5016026;28;20206;-82
2022/02/17 09:09:14;;;;;;;0.20;0.20;;;12.10;99.90;;;;;;5021947;28;20192;-82
2022/02/17 09:11:40;;;;;;;2.37;0.23;;;11.70;99.90;;;;;;5020842;28;20194;-82
2022/02/17 09:14:06;;;;;;;0.10;0.10;;;11.90;99.90;;;;;;5022722;28;20566;-83
2022/02/17 09:16:32;;;;;;;0.30;0.30;;;11.80;99.90;;;;;;5017190;28;20206;-82
2022/02/17 09:18:58;;;;;;;1.17;1.13;;;11.90;99.90;;;;;;5023353;28;20197;-82
2022/02/17 09:21:23;;;;;;;1.37;0.60;;;11.80;99.90;;;;;;5021488;28;20223;-83
2022/02/17 09:23:49;;;;;;;2.13;0.57;;;11.70;99.90;;;;;;5024899;28;20733;-82
2022/02/17 09:26:15;;;;;;;1.53;1.43;;;11.70;99.90;;;;;;5018106;28;20210;-82
2022/02/17 09:28:41;;;;;;;0.63;0.40;;;11.90;99.90;;;;;;5026777;28;20182;-82
2022/02/17 09:31:08;;;;;;;0.87;0.87;;;12.00;99.90;;;;;;5031990;28;20185;-82
2022/02/17 09:33:33;;;;;;;0.30;0.30;;;12.20;99.90;;;;;;5026837;28;20185;-81
2022/02/17 09:35:59;;;;;;;0.73;0.73;;;12.30;99.90;;;;;;5029918;28;21083;-81
2022/02/17 09:38:25;;;;;;;0.23;0.23;;;12.10;99.90;;;;;;5026594;28;20190;-81
2022/02/17 09:40:51;;;;;;;2.23;2.03;;;11.90;99.90;;;;;;5029716;28;20272;-81
2022/02/17 09:43:16;;;;;;;0.40;0.40;;;11.70;99.90;;;;;;5026475;28;20326;-82
2022/02/17 09:45:44;;;;;;;6.70;0.63;;;11.50;99.90;;;;;;5019467;28;20308;-81
2022/02/17 09:48:11;;;;;;;1.23;0.37;;;11.60;99.90;;;;;;5020657;28;20240;-81
2022/02/17 09:50:36;;;;;;;0.23;0.23;;;11.50;99.90;;;;;;5022562;28;20265;-82
2022/02/17 09:53:02;;;;;;;0.97;0.40;;;11.40;99.90;;;;;;5025810;28;20598;-81
2022/02/17 09:55:28;;;;;;;0.27;0.27;;;11.50;99.90;;;;;;5022429;28;20190;-82
2022/02/17 09:57:54;;;;;;;1.07;0.70;;;11.50;99.90;;;;;;5022235;28;20248;-81
2022/02/17 10:00:19;;;;;;;2.60;0.40;;;11.70;99.90;;;;;;5027435;28;20213;-83
2022/02/17 10:02:45;;;;;;;2.83;0.30;;;11.90;99.90;;;;;;5023800;28;20217;-82
2022/02/17 10:05:15;;;;;;;0.87;0.87;;;11.90;99.90;;;;;;5024640;28;20220;-84
2022/02/17 10:07:43;;;;;;;0.83;0.70;;;11.90;99.90;;;;;;5024284;28;20551;-83
2022/02/17 10:10:14;;;;;;;5.10;0.40;;;11.90;99.90;;;;;;5027034;28;20182;-84
2022/02/17 10:13:01;;;;;;;0.30;0.30;;;12.20;99.90;;;;;;5025199;28;20181;-82
2022/02/17 10:15:38;;;;;;;0.23;0.23;;;12.30;99.90;;;;;;5025483;28;20197;-83
2022/02/17 10:18:10;;;;;;;0.70;0.70;;;12.20;99.90;;;;;;5023441;28;20240;-84
2022/02/17 10:20:56;;;;;;;0.20;0.20;;;12.30;99.90;;;;;;5026395;28;20192;-83
2022/02/17 10:23:24;;;;;;;0.47;0.47;;;12.00;99.90;;;;;;5026903;28;20201;-83
2022/02/17 10:26:14;;;;;;;4.13;1.43;;;11.90;99.90;;;;;;5026815;28;20217;-84
2022/02/17 10:28:57;;;;;;;0.20;0.20;;;11.90;99.90;;;;;;5027156;28;20176;-83
2022/02/17 10:31:30;;;;;;;0.00;0.00;;;12.00;99.90;;;;;;5025245;28;20237;-81
2022/02/17 10:33:58;;;;;;;1.07;0.40;;;12.00;99.90;;;;;;5028076;28;20235;-81
2022/02/17 10:36:42;;;;;;;0.20;0.20;;;12.20;99.90;;;;;;5017184;28;20212;-81
2022/02/17 10:39:12;;;;;;;1.63;0.20;;;12.40;99.90;;;;;;5026334;28;21094;-81
2022/02/17 10:41:49;;;;;;;0.20;0.20;;;12.60;99.90;;;;;;5024843;28;20191;-82
2022/02/17 10:44:20;;;;;;;0.70;0.70;;;12.70;99.90;;;;;;5021317;28;21320;-82
2022/02/17 10:46:46;;;;;;;0.20;0.20;;;12.70;99.90;;;;;;5043176;28;20214;-81
2022/02/17 10:49:17;;;;;;;0.83;0.40;;;12.80;99.90;;;;;;5026841;28;20190;-82
2022/02/17 10:51:43;;;;;;;0.13;0.13;;;12.70;99.90;;;;;;5024818;28;20269;-82
2022/02/17 10:54:10;;;;;;;0.93;0.87;;;12.90;99.90;;;;;;5026766;28;20276;-81
2022/02/17 10:56:38;;;;;;;0.27;0.27;;;12.80;99.90;;;;;;5027775;28;20206;-82
2022/02/17 11:00:00;;;;;;;6.00;2.13;;;12.90;99.90;;;;;;5020609;28;20201;-82
2022/02/17 11:01:54;;;;;;;0.30;0.30;;;12.90;99.90;;;;;;5028287;28;20562;-82
2022/02/17 11:04:20;;;;;;;0.40;0.27;;;13.20;99.90;;;;;;5026238;28;20227;-82
2022/02/17 11:06:47;;;;;;;0.13;0.13;;;13.20;99.90;;;;;;5025351;28;20205;-81
2022/02/17 11:09:12;;;;;;;0.40;0.20;;;13.30;99.90;;;;;;5023674;28;20604;-82
2022/02/17 11:11:39;;;;;;;0.60;0.60;;;13.60;99.90;;;;;;5024244;28;20273;-81
2022/02/17 11:14:04;;;;;;;0.20;0.20;;;13.70;99.90;;;;;;5024733;28;20190;-82
2022/02/17 11:16:30;;;;;;;0.30;0.30;;;13.80;99.90;;;;;;5024103;28;20217;-82
2022/02/17 11:18:58;;;;;;;0.93;0.43;;;13.70;99.90;;;;;;5026101;28;20187;-82
2022/02/17 11:21:23;;;;;;;0.17;0.17;;;14.00;99.90;;;;;;5020862;28;20190;-81
2022/02/17 11:23:49;;;;;;;0.10;0.10;;;13.70;99.90;;;;;;5021657;28;20197;-81
2022/02/17 11:26:23;;;;;;;0.17;0.17;;;13.40;99.90;;;;;;5017316;28;20273;-81
2022/02/17 11:28:49;;;;;;;0.43;0.43;;;13.10;99.90;;;;;;5025423;28;20189;-81
2022/02/17 11:31:15;;;;;;;0.20;0.20;;;12.90;99.90;;;;;;5021486;28;20186;-80
2022/02/17 11:33:42;;;;;;;0.10;0.10;;;12.80;99.90;;;;;;5022255;28;20706;-81
2022/02/17 11:36:07;;;;;;;2.77;0.77;;;12.80;99.90;;;;;;5022066;28;20261;-80
2022/02/17 11:38:36;;;;;;;0.10;0.10;;;12.70;99.90;;;;;;5024027;28;20674;-81
2022/02/17 11:41:07;;;;;;;1.37;0.60;;;13.00;99.90;;;;;;5021842;28;20722;-81
2022/02/17 11:43:34;;;;;;;0.10;0.10;;;13.20;99.90;;;;;;5022942;28;20200;-82
2022/02/17 11:46:00;;;;;;;1.23;0.53;;;13.50;99.90;;;;;;5026667;28;20280;-82
2022/02/17 11:48:39;;;;;;;0.60;0.60;;;13.90;99.90;;;;;;5024806;28;20190;-83
2022/02/17 11:51:21;;;;;;;0.23;0.23;;;14.20;99.90;;;;;;5025461;28;20189;-82
2022/02/17 11:53:51;;;;;;;0.40;0.30;;;14.40;99.90;;;;;;5026564;28;20201;-83
2022/02/17 11:56:17;;;;;;;0.83;0.57;;;14.10;99.90;;;;;;5023757;28;20215;-81
2022/02/17 11:58:44;;;;;;;1.17;1.03;;;13.90;99.90;;;;;;5027646;28;20178;-82
2022/02/17 12:01:36;;;;;;;0.30;0.30;;;13.60;99.90;;;;;;5025645;28;20183;-82
2022/02/17 12:04:18;;;;;;;0.33;0.30;;;13.30;99.90;;;;;;5025799;28;20565;-82
2022/02/17 12:06:52;;;;;;;3.10;0.73;;;13.00;99.90;;;;;;5022677;28;20209;-81
2022/02/17 12:11:56;;;;;;;1.00;0.97;;;12.90;99.90;;;;;;5023409;28;20205;-83
2022/02/17 12:14:23;;;;;;;0.30;0.30;;;12.80;99.90;;;;;;5021222;28;20218;-83
2022/02/17 12:16:54;;;;;;;6.80;0.73;;;12.60;99.90;;;;;;5020407;28;20578;-82
2022/02/17 12:19:20;;;;;;;0.10;0.10;;;12.20;99.90;;;;;;5021097;28;20427;-83
2022/02/17 12:21:47;;;;;;;0.40;0.40;;;11.90;99.90;;;;;;5023645;28;20192;-82
2022/02/17 12:24:15;;;;;;;0.50;0.47;;;11.60;99.90;;;;;;5016222;28;20192;-82
2022/02/17 12:26:47;;;;;;;0.83;0.50;;;11.20;99.90;;;;;;5025855;28;20249;-82
2022/02/17 12:29:33;;;;;;;0.00;0.00;;;10.60;99.90;;;;;;5015369;28;21211;-82
2022/02/17 12:32:00;;;;;;;0.10;0.10;;;10.30;99.90;;;;;;5020171;28;20186;-83
2022/02/17 12:34:27;;;;;;;0.10;0.10;;;10.10;99.90;;;;;;5017677;28;20190;-84
2022/02/17 12:36:53;;;;;;;2.57;0.20;;;10.20;99.90;;;;;;5021324;28;20205;-83
2022/02/17 12:39:20;;;;;;;0.70;0.13;;;10.00;99.90;;;;;;5023948;28;20268;-83
2022/02/17 12:42:01;;;;;;;0.13;0.13;;;9.10;99.90;;;;;;5021486;28;20194;-80
2022/02/17 12:44:30;;;;;;;0.00;0.00;;;8.80;99.90;;;;;;5019866;28;21109;-81
2022/02/17 12:47:00;;;;;;;0.67;0.67;;;8.90;99.90;;;;;;5021931;28;20202;-81
2022/02/17 12:49:29;;;;;;;0.10;0.10;;;9.20;99.90;;;;;;5019058;28;20307;-83
2022/02/17 12:52:08;;;;;;;0.10;0.10;;;9.60;99.90;;;;;;5023491;28;20333;-81